createdAt,value
2018-10-17T00:00:30.948Z,12.05
2018-10-17T00:01:31.290Z,12.04
2018-10-17T00:02:31.688Z,12.03
2018-10-17T00:03:32.199Z,12.01
2018-10-17T00:04:32.849Z,12.00
2018-10-17T00:05:33.139Z,11.99
2018-10-17T00:06:34.028Z,11.98
2018-10-17T00:07:34.537Z,11.96
2018-10-17T00:08:34.961Z,11.95
2018-10-17T00:09:35.306Z,11.94
2018-10-17T00:10:35.711Z,11.93
2018-10-17T00:11:36.218Z,11.92
2018-10-17T00:12:36.619Z,11.90
2018-10-17T00:13:37.113Z,11.89
2018-10-17T00:14:37.767Z,11.88
2018-10-17T00:15:38.055Z,11.87
2018-10-17T00:16:38.381Z,11.85
2018-10-17T00:17:38.754Z,11.84
2018-10-17T00:18:39.049Z,11.83
2018-10-17T00:19:39.320Z,11.81
2018-10-17T00:20:39.795Z,11.80
2018-10-17T00:21:40.156Z,11.80
2018-10-17T00:22:40.454Z,11.79
2018-10-17T00:23:40.736Z,11.79
2018-10-17T00:24:41.011Z,11.78
2018-10-17T00:25:41.296Z,11.78
2018-10-17T00:26:41.925Z,11.77
2018-10-17T00:27:42.180Z,11.77
2018-10-17T00:28:42.456Z,11.76
2018-10-17T00:29:42.808Z,11.76
2018-10-17T00:29:51.378Z,11.73
2018-10-17T00:30:52.758Z,11.71
2018-10-17T00:31:53.134Z,11.71
2018-10-17T00:32:53.514Z,11.71
2018-10-17T00:33:53.914Z,11.70
2018-10-17T00:34:54.263Z,11.69
2018-10-17T00:35:53.671Z,11.68
2018-10-17T00:36:55.232Z,11.67
2018-10-17T00:37:55.629Z,11.66
2018-10-17T00:38:56.124Z,11.66
2018-10-17T00:39:56.473Z,11.65
2018-10-17T00:40:57.024Z,11.65
2018-10-17T00:41:56.558Z,11.64
2018-10-17T00:42:57.991Z,11.63
2018-10-17T00:43:57.372Z,11.62
2018-10-17T00:44:58.912Z,11.61
2018-10-17T00:45:59.448Z,11.60
2018-10-17T00:47:00.263Z,11.59
2018-10-17T00:47:59.568Z,11.58
2018-10-17T00:49:00.994Z,11.57
2018-10-17T00:50:00.257Z,11.56
2018-10-17T00:51:01.564Z,11.55
2018-10-17T00:52:01.891Z,11.54
2018-10-17T00:53:02.195Z,11.53
2018-10-17T00:54:01.450Z,11.52
2018-10-17T00:55:02.892Z,11.51
2018-10-17T00:56:02.312Z,11.50
2018-10-17T00:57:03.615Z,11.49
2018-10-17T00:58:03.919Z,11.49
2018-10-17T00:59:04.418Z,11.48
2018-10-17T01:00:03.746Z,11.47
2018-10-17T01:01:05.436Z,11.46
2018-10-17T01:02:04.682Z,11.45
2018-10-17T01:03:06.498Z,11.45
2018-10-17T01:04:07.048Z,11.44
2018-10-17T01:05:07.432Z,11.43
2018-10-17T01:06:06.987Z,11.43
2018-10-17T01:07:08.421Z,11.42
2018-10-17T01:08:07.613Z,11.41
2018-10-17T01:09:09.074Z,11.40
2018-10-17T01:10:09.475Z,11.39
2018-10-17T01:11:09.899Z,11.38
2018-10-17T01:12:09.280Z,11.38
2018-10-17T01:13:11.272Z,11.37
2018-10-17T01:14:10.570Z,11.36
2018-10-17T01:15:12.062Z,11.35
2018-10-17T01:16:12.730Z,11.34
2018-10-17T01:17:13.042Z,11.32
2018-10-17T01:18:13.344Z,11.31
2018-10-17T01:19:13.842Z,11.30
2018-10-17T01:20:13.513Z,11.28
2018-10-17T01:21:14.884Z,11.27
2018-10-17T01:22:15.327Z,11.25
2018-10-17T01:23:15.817Z,11.24
2018-10-17T01:24:15.025Z,11.23
2018-10-17T01:25:16.424Z,11.22
2018-10-17T01:25:25.058Z,11.07
2018-10-17T01:26:26.247Z,11.05
2018-10-17T01:27:26.536Z,11.04
2018-10-17T01:28:26.849Z,11.04
2018-10-17T01:29:27.183Z,11.04
2018-10-17T01:30:27.514Z,11.04
2018-10-17T01:31:27.813Z,11.03
2018-10-17T01:32:28.085Z,11.03
2018-10-17T01:33:28.294Z,11.02
2018-10-17T01:34:28.545Z,11.02
2018-10-17T01:35:28.907Z,11.02
2018-10-17T01:36:29.133Z,11.02
2018-10-17T01:37:29.469Z,11.02
2018-10-17T01:38:28.670Z,11.02
2018-10-17T01:39:29.955Z,11.01
2018-10-17T01:40:30.270Z,11.01
2018-10-17T01:41:30.525Z,11.01
2018-10-17T01:42:30.909Z,11.01
2018-10-17T01:43:31.456Z,11.01
2018-10-17T01:44:32.175Z,11.01
2018-10-17T01:45:32.539Z,11.01
2018-10-17T01:46:33.142Z,11.01
2018-10-17T01:47:33.507Z,11.01
2018-10-17T01:48:33.830Z,11.02
2018-10-17T01:49:34.118Z,11.02
2018-10-17T01:50:34.380Z,11.02
2018-10-17T01:51:34.755Z,11.01
2018-10-17T01:52:35.148Z,11.01
2018-10-17T01:53:35.547Z,11.00
2018-10-17T01:54:35.934Z,11.00
2018-10-17T01:55:36.249Z,10.99
2018-10-17T01:56:37.278Z,10.98
2018-10-17T01:57:37.635Z,10.98
2018-10-17T01:58:37.167Z,10.97
2018-10-17T01:59:37.573Z,10.96
2018-10-17T02:00:37.905Z,10.95
2018-10-17T02:01:39.315Z,10.95
2018-10-17T02:02:39.674Z,10.94
2018-10-17T02:03:40.093Z,10.93
2018-10-17T02:04:40.489Z,10.93
2018-10-17T02:05:40.778Z,10.92
2018-10-17T02:06:41.240Z,10.91
2018-10-17T02:07:41.785Z,10.90
2018-10-17T02:08:42.139Z,10.90
2018-10-17T02:09:42.410Z,10.88
2018-10-17T02:10:42.853Z,10.87
2018-10-17T02:11:43.366Z,10.85
2018-10-17T02:11:53.320Z,10.63
2018-10-17T02:12:54.807Z,10.60
2018-10-17T02:13:54.093Z,10.60
2018-10-17T02:14:55.409Z,10.60
2018-10-17T02:15:55.806Z,10.60
2018-10-17T02:16:56.243Z,10.59
2018-10-17T02:17:55.984Z,10.59
2018-10-17T02:18:57.416Z,10.58
2018-10-17T02:19:57.304Z,10.58
2018-10-17T02:20:59.033Z,10.57
2018-10-17T02:21:59.572Z,10.56
2018-10-17T02:22:59.931Z,10.56
2018-10-17T02:23:59.388Z,10.56
2018-10-17T02:25:00.780Z,10.57
2018-10-17T02:26:01.238Z,10.57
2018-10-17T02:27:01.585Z,10.57
2018-10-17T02:28:02.061Z,10.56
2018-10-17T02:29:02.516Z,10.56
2018-10-17T02:30:01.888Z,10.55
2018-10-17T02:31:02.354Z,10.54
2018-10-17T02:32:02.795Z,10.53
2018-10-17T02:33:03.075Z,10.52
2018-10-17T02:34:04.367Z,10.52
2018-10-17T02:35:04.786Z,10.51
2018-10-17T02:36:04.248Z,10.51
2018-10-17T02:37:06.116Z,10.50
2018-10-17T02:38:05.509Z,10.49
2018-10-17T02:39:06.904Z,10.48
2018-10-17T02:40:07.208Z,10.47
2018-10-17T02:41:07.633Z,10.47
2018-10-17T02:42:06.901Z,10.45
2018-10-17T02:43:08.280Z,10.44
2018-10-17T02:44:07.563Z,10.43
2018-10-17T02:45:08.889Z,10.42
2018-10-17T02:46:09.179Z,10.42
2018-10-17T02:47:09.621Z,10.41
2018-10-17T02:48:09.251Z,10.40
2018-10-17T02:49:10.593Z,10.39
2018-10-17T02:50:09.982Z,10.38
2018-10-17T02:51:11.354Z,10.38
2018-10-17T02:52:11.727Z,10.37
2018-10-17T02:53:12.121Z,10.36
2018-10-17T02:54:11.652Z,10.35
2018-10-17T02:55:13.110Z,10.34
2018-10-17T02:56:12.448Z,10.33
2018-10-17T02:57:13.949Z,10.32
2018-10-17T02:58:14.367Z,10.31
2018-10-17T02:59:14.864Z,10.31
2018-10-17T03:00:14.074Z,10.30
2018-10-17T03:01:15.530Z,10.30
2018-10-17T03:02:14.849Z,10.30
2018-10-17T03:03:15.837Z,10.30
2018-10-17T03:04:16.138Z,10.30
2018-10-17T03:05:16.632Z,10.30
2018-10-17T03:06:15.819Z,10.29
2018-10-17T03:07:17.252Z,10.29
2018-10-17T03:08:16.573Z,10.28
2018-10-17T03:09:18.008Z,10.28
2018-10-17T03:10:18.513Z,10.28
2018-10-17T03:11:19.088Z,10.27
2018-10-17T03:12:18.493Z,10.27
2018-10-17T03:12:27.189Z,10.24
2018-10-17T03:13:27.621Z,10.23
2018-10-17T03:14:27.880Z,10.24
2018-10-17T03:15:28.276Z,10.24
2018-10-17T03:16:28.561Z,10.24
2018-10-17T03:17:28.919Z,10.25
2018-10-17T03:18:29.291Z,10.26
2018-10-17T03:19:29.577Z,10.26
2018-10-17T03:20:30.055Z,10.27
2018-10-17T03:21:30.379Z,10.28
2018-10-17T03:22:30.713Z,10.28
2018-10-17T03:23:31.016Z,10.29
2018-10-17T03:24:31.413Z,10.29
2018-10-17T03:25:31.766Z,10.29
2018-10-17T03:26:32.043Z,10.29
2018-10-17T03:27:32.462Z,10.29
2018-10-17T03:28:33.237Z,10.29
2018-10-17T03:29:33.587Z,10.28
2018-10-17T03:30:34.009Z,10.28
2018-10-17T03:31:34.435Z,10.27
2018-10-17T03:32:33.542Z,10.27
2018-10-17T03:33:34.816Z,10.26
2018-10-17T03:34:35.075Z,10.25
2018-10-17T03:35:35.482Z,10.25
2018-10-17T03:36:35.840Z,10.24
2018-10-17T03:37:36.502Z,10.23
2018-10-17T03:38:37.092Z,10.22
2018-10-17T03:39:37.356Z,10.22
2018-10-17T03:40:37.774Z,10.21
2018-10-17T03:41:38.140Z,10.21
2018-10-17T03:42:38.466Z,10.21
2018-10-17T03:43:38.942Z,10.20
2018-10-17T03:44:39.299Z,10.19
2018-10-17T03:45:39.753Z,10.19
2018-10-17T03:46:40.113Z,10.18
2018-10-17T03:47:40.634Z,10.17
2018-10-17T03:48:40.924Z,10.16
2018-10-17T03:49:41.440Z,10.16
2018-10-17T03:50:40.732Z,10.15
2018-10-17T03:51:42.234Z,10.15
2018-10-17T03:52:42.752Z,10.15
2018-10-17T03:53:43.240Z,10.15
2018-10-17T03:54:43.637Z,10.14
2018-10-17T03:55:43.957Z,10.14
2018-10-17T03:56:44.372Z,10.13
2018-10-17T03:56:52.459Z,10.09
2018-10-17T03:57:54.001Z,10.09
2018-10-17T03:58:54.370Z,10.09
2018-10-17T03:59:54.824Z,10.09
2018-10-17T04:00:55.206Z,10.08
2018-10-17T04:01:54.554Z,10.08
2018-10-17T04:02:55.963Z,10.07
2018-10-17T04:03:55.273Z,10.06
2018-10-17T04:04:56.728Z,10.05
2018-10-17T04:05:55.973Z,10.05
2018-10-17T04:06:57.360Z,10.04
2018-10-17T04:07:56.780Z,10.03
2018-10-17T04:08:57.792Z,10.03
2018-10-17T04:09:58.099Z,10.02
2018-10-17T04:10:58.519Z,10.01
2018-10-17T04:11:57.832Z,10.00
2018-10-17T04:12:59.509Z,9.99
2018-10-17T04:13:58.865Z,9.98
2018-10-17T04:15:00.224Z,9.97
2018-10-17T04:16:00.560Z,9.96
2018-10-17T04:17:00.899Z,9.95
2018-10-17T04:18:00.770Z,9.94
2018-10-17T04:19:02.204Z,9.93
2018-10-17T04:20:01.416Z,9.93
2018-10-17T04:21:02.903Z,9.92
2018-10-17T04:22:03.185Z,9.91
2018-10-17T04:23:03.646Z,9.91
2018-10-17T04:24:02.828Z,9.90
2018-10-17T04:25:04.488Z,9.89
2018-10-17T04:26:03.928Z,9.88
2018-10-17T04:27:05.333Z,9.88
2018-10-17T04:28:05.546Z,9.87
2018-10-17T04:29:05.926Z,9.87
2018-10-17T04:30:05.413Z,9.87
2018-10-17T04:31:06.786Z,9.86
2018-10-17T04:32:06.118Z,9.86
2018-10-17T04:33:07.386Z,9.86
2018-10-17T04:34:07.946Z,9.86
2018-10-17T04:35:08.568Z,9.86
2018-10-17T04:36:07.805Z,9.86
2018-10-17T04:37:08.387Z,9.85
2018-10-17T04:38:08.689Z,9.85
2018-10-17T04:39:10.150Z,9.84
2018-10-17T04:40:10.587Z,9.83
2018-10-17T04:41:11.048Z,9.83
2018-10-17T04:42:10.324Z,9.82
2018-10-17T04:43:11.855Z,9.81
2018-10-17T04:44:11.199Z,9.80
2018-10-17T04:45:12.881Z,9.80
2018-10-17T04:46:13.272Z,9.79
2018-10-17T04:47:13.790Z,9.78
2018-10-17T04:48:13.091Z,9.77
2018-10-17T04:49:14.533Z,9.76
2018-10-17T04:50:13.751Z,9.75
2018-10-17T04:51:15.024Z,9.74
2018-10-17T04:52:15.413Z,9.73
2018-10-17T04:53:15.740Z,9.72
2018-10-17T04:54:15.125Z,9.71
2018-10-17T04:55:16.534Z,9.70
2018-10-17T04:56:15.850Z,9.68
2018-10-17T04:57:17.662Z,9.67
2018-10-17T04:57:26.391Z,9.50
2018-10-17T04:58:26.749Z,9.50
2018-10-17T04:59:27.553Z,9.50
2018-10-17T05:00:28.229Z,9.50
2018-10-17T05:01:28.486Z,9.49
2018-10-17T05:02:28.826Z,9.48
2018-10-17T05:03:29.559Z,9.48
2018-10-17T05:04:29.142Z,9.47
2018-10-17T05:05:29.462Z,9.47
2018-10-17T05:06:31.152Z,9.46
2018-10-17T05:07:31.672Z,9.46
2018-10-17T05:08:32.655Z,9.46
2018-10-17T05:09:33.082Z,9.45
2018-10-17T05:10:33.401Z,9.45
2018-10-17T05:11:34.020Z,9.45
2018-10-17T05:12:34.302Z,9.45
2018-10-17T05:13:34.640Z,9.45
2018-10-17T05:14:35.007Z,9.45
2018-10-17T05:15:35.416Z,9.44
2018-10-17T05:16:35.900Z,9.44
2018-10-17T05:17:36.246Z,9.43
2018-10-17T05:18:36.923Z,9.43
2018-10-17T05:19:37.311Z,9.43
2018-10-17T05:20:38.206Z,9.43
2018-10-17T05:21:38.616Z,9.42
2018-10-17T05:22:39.179Z,9.42
2018-10-17T05:23:39.520Z,9.42
2018-10-17T05:24:39.775Z,9.41
2018-10-17T05:25:40.139Z,9.41
2018-10-17T05:26:40.635Z,9.40
2018-10-17T05:27:40.926Z,9.40
2018-10-17T05:28:41.631Z,9.39
2018-10-17T05:29:42.062Z,9.39
2018-10-17T05:30:41.287Z,9.38
2018-10-17T05:31:42.681Z,9.38
2018-10-17T05:32:43.182Z,9.38
2018-10-17T05:33:44.098Z,9.38
2018-10-17T05:34:44.579Z,9.37
2018-10-17T05:35:44.962Z,9.37
2018-10-17T05:36:45.554Z,9.37
2018-10-17T05:37:46.069Z,9.37
2018-10-17T05:38:45.325Z,9.36
2018-10-17T05:39:46.719Z,9.36
2018-10-17T05:40:47.229Z,9.35
2018-10-17T05:41:46.500Z,9.35
2018-10-17T05:42:47.820Z,9.34
2018-10-17T05:43:48.239Z,9.34
2018-10-17T05:44:48.646Z,9.33
2018-10-17T05:44:57.699Z,9.20
2018-10-17T05:45:58.229Z,9.19
2018-10-17T05:46:58.915Z,9.19
2018-10-17T05:47:58.470Z,9.19
2018-10-17T05:48:59.826Z,9.19
2018-10-17T05:49:59.220Z,9.18
2018-10-17T05:51:00.882Z,9.18
2018-10-17T05:52:01.676Z,9.17
2018-10-17T05:53:02.466Z,9.17
2018-10-17T05:54:01.875Z,9.17
2018-10-17T05:55:03.303Z,9.17
2018-10-17T05:56:02.527Z,9.17
2018-10-17T05:57:03.989Z,9.17
2018-10-17T05:58:04.796Z,9.17
2018-10-17T05:59:05.251Z,9.17
2018-10-17T06:00:04.543Z,9.17
2018-10-17T06:01:06.098Z,9.17
2018-10-17T06:02:05.443Z,9.17
2018-10-17T06:03:05.769Z,9.17
2018-10-17T06:04:07.081Z,9.17
2018-10-17T06:05:07.936Z,9.16
2018-10-17T06:06:07.227Z,9.16
2018-10-17T06:07:08.844Z,9.16
2018-10-17T06:08:08.153Z,9.17
2018-10-17T06:09:09.475Z,9.17
2018-10-17T06:10:10.749Z,9.17
2018-10-17T06:11:11.116Z,9.17
2018-10-17T06:12:09.668Z,9.18
2018-10-17T06:13:10.029Z,9.19
2018-10-17T06:14:10.115Z,9.20
2018-10-17T06:15:11.715Z,9.21
2018-10-17T06:16:12.129Z,9.22
2018-10-17T06:17:12.342Z,9.23
2018-10-17T06:18:11.681Z,9.24
2018-10-17T06:19:13.201Z,9.26
2018-10-17T06:20:12.449Z,9.28
2018-10-17T06:21:14.170Z,9.29
2018-10-17T06:22:14.712Z,9.30
2018-10-17T06:23:15.229Z,9.32
2018-10-17T06:24:14.561Z,9.33
2018-10-17T06:25:16.988Z,9.34
2018-10-17T06:26:15.265Z,9.36
2018-10-17T06:27:17.439Z,9.37
2018-10-17T06:28:17.067Z,9.38
2018-10-17T06:29:16.676Z,9.39
2018-10-17T06:30:17.019Z,9.40
2018-10-17T06:31:18.356Z,9.42
2018-10-17T06:32:17.869Z,9.43
2018-10-17T06:33:19.201Z,9.44
2018-10-17T06:34:19.671Z,9.44
2018-10-17T06:35:19.077Z,9.45
2018-10-17T06:36:19.563Z,9.47
2018-10-17T06:37:21.118Z,9.47
2018-10-17T06:38:21.637Z,9.49
2018-10-17T06:39:21.927Z,9.50
2018-10-17T06:40:22.350Z,9.51
2018-10-17T06:41:22.728Z,9.52
2018-10-17T06:42:23.057Z,9.54
2018-10-17T06:43:23.386Z,9.55
2018-10-17T06:44:22.715Z,9.56
2018-10-17T06:44:31.267Z,9.80
2018-10-17T06:45:32.745Z,9.80
2018-10-17T06:46:33.299Z,9.80
2018-10-17T06:47:33.591Z,9.80
2018-10-17T06:48:33.928Z,9.81
2018-10-17T06:49:34.209Z,9.82
2018-10-17T06:50:34.555Z,9.83
2018-10-17T06:51:35.016Z,9.83
2018-10-17T06:52:35.486Z,9.84
2018-10-17T06:53:35.099Z,9.86
2018-10-17T06:54:35.365Z,9.87
2018-10-17T06:55:35.799Z,9.89
2018-10-17T06:56:37.265Z,9.90
2018-10-17T06:57:37.716Z,9.92
2018-10-17T06:58:37.148Z,9.93
2018-10-17T06:59:38.511Z,9.95
2018-10-17T07:00:38.831Z,9.97
2018-10-17T07:01:39.564Z,9.99
2018-10-17T07:02:38.853Z,10.01
2018-10-17T07:03:40.411Z,10.03
2018-10-17T07:04:40.878Z,10.05
2018-10-17T07:05:41.209Z,10.08
2018-10-17T07:06:41.549Z,10.10
2018-10-17T07:07:41.863Z,10.13
2018-10-17T07:08:42.380Z,10.15
2018-10-17T07:09:42.657Z,10.17
2018-10-17T07:10:43.409Z,10.19
2018-10-17T07:11:43.966Z,10.22
2018-10-17T07:12:44.280Z,10.24
2018-10-17T07:13:45.685Z,10.26
2018-10-17T07:14:44.983Z,10.28
2018-10-17T07:15:45.246Z,10.30
2018-10-17T07:16:44.797Z,10.33
2018-10-17T07:17:46.356Z,10.35
2018-10-17T07:18:46.693Z,10.38
2018-10-17T07:19:47.039Z,10.40
2018-10-17T07:20:47.333Z,10.42
2018-10-17T07:21:48.028Z,10.44
2018-10-17T07:22:48.352Z,10.46
2018-10-17T07:23:48.867Z,10.49
2018-10-17T07:24:49.230Z,10.51
2018-10-17T07:25:49.861Z,10.54
2018-10-17T07:26:50.320Z,10.56
2018-10-17T07:27:50.668Z,10.58
2018-10-17T07:28:51.099Z,10.61
2018-10-17T07:29:50.739Z,10.63
2018-10-17T07:30:51.337Z,10.66
2018-10-17T07:31:52.596Z,10.68
2018-10-17T07:32:53.013Z,10.71
2018-10-17T07:33:54.319Z,10.73
2018-10-17T07:34:53.809Z,10.76
2018-10-17T07:35:55.404Z,10.78
2018-10-17T07:36:55.058Z,10.81
2018-10-17T07:37:03.696Z,11.20
2018-10-17T07:38:04.372Z,11.19
2018-10-17T07:39:04.945Z,11.20
2018-10-17T07:40:05.362Z,11.20
2018-10-17T07:41:05.850Z,11.21
2018-10-17T07:42:06.162Z,11.21
2018-10-17T07:43:05.590Z,11.22
2018-10-17T07:44:06.913Z,11.22
2018-10-17T07:45:07.285Z,11.23
2018-10-17T07:46:07.835Z,11.24
2018-10-17T07:47:08.486Z,11.25
2018-10-17T07:48:08.946Z,11.26
2018-10-17T07:49:08.159Z,11.28
2018-10-17T07:50:09.439Z,11.30
2018-10-17T07:51:09.837Z,11.32
2018-10-17T07:52:10.291Z,11.33
2018-10-17T07:53:10.629Z,11.34
2018-10-17T07:54:10.277Z,11.34
2018-10-17T07:55:10.422Z,11.35
2018-10-17T07:56:12.042Z,11.36
2018-10-17T07:57:12.422Z,11.37
2018-10-17T07:58:12.895Z,11.38
2018-10-17T07:59:13.187Z,11.39
2018-10-17T08:00:13.547Z,11.40
2018-10-17T08:01:12.949Z,11.41
2018-10-17T08:02:14.295Z,11.43
2018-10-17T08:03:14.831Z,11.43
2018-10-17T08:04:15.521Z,11.44
2018-10-17T08:05:16.074Z,11.44
2018-10-17T08:06:16.550Z,11.45
2018-10-17T08:07:15.794Z,11.45
2018-10-17T08:08:17.086Z,11.45
2018-10-17T08:09:17.395Z,11.46
2018-10-17T08:10:17.672Z,11.46
2018-10-17T08:11:17.973Z,11.47
2018-10-17T08:12:18.369Z,11.48
2018-10-17T08:13:17.648Z,11.48
2018-10-17T08:14:19.157Z,11.49
2018-10-17T08:15:18.398Z,11.50
2018-10-17T08:16:19.852Z,11.51
2018-10-17T08:17:20.282Z,11.53
2018-10-17T08:18:20.601Z,11.55
2018-10-17T08:19:21.195Z,11.56
2018-10-17T08:20:20.322Z,11.58
2018-10-17T08:21:21.937Z,11.60
2018-10-17T08:22:21.143Z,11.62
2018-10-17T08:23:22.961Z,11.64
2018-10-17T08:24:23.446Z,11.65
2018-10-17T08:25:23.727Z,11.67
2018-10-17T08:26:24.157Z,11.68
2018-10-17T08:27:24.084Z,11.70
2018-10-17T08:28:24.546Z,11.71
2018-10-17T08:29:25.896Z,11.73
2018-10-17T08:30:26.294Z,11.74
2018-10-17T08:30:35.109Z,11.98
2018-10-17T08:31:35.533Z,11.98
2018-10-17T08:32:36.034Z,11.98
2018-10-17T08:33:36.513Z,11.98
2018-10-17T08:34:36.921Z,11.98
2018-10-17T08:35:37.369Z,11.98
2018-10-17T08:36:36.653Z,11.99
2018-10-17T08:37:37.376Z,11.99
2018-10-17T08:38:37.137Z,12.00
2018-10-17T08:39:38.494Z,12.01
2018-10-17T08:40:39.031Z,12.01
2018-10-17T08:41:39.556Z,12.02
2018-10-17T08:42:39.997Z,12.03
2018-10-17T08:43:40.432Z,12.04
2018-10-17T08:44:41.239Z,12.05
2018-10-17T08:45:41.535Z,12.07
2018-10-17T08:46:41.794Z,12.08
2018-10-17T08:47:42.071Z,12.10
2018-10-17T08:48:42.441Z,12.11
2018-10-17T08:49:43.791Z,12.13
2018-10-17T08:50:43.289Z,12.15
2018-10-17T08:51:42.765Z,12.17
2018-10-17T08:52:44.330Z,12.19
2018-10-17T08:53:45.300Z,12.23
2018-10-17T08:54:45.651Z,12.27
2018-10-17T08:55:46.133Z,12.33
2018-10-17T08:56:46.530Z,12.39
2018-10-17T08:57:46.860Z,12.46
2018-10-17T08:58:46.213Z,12.54
2018-10-17T08:59:47.903Z,12.64
2018-10-17T09:00:48.119Z,12.76
2018-10-17T09:01:48.377Z,12.88
2018-10-17T09:02:48.660Z,13.02
2018-10-17T09:03:48.991Z,13.16
2018-10-17T09:04:49.463Z,13.31
2018-10-17T09:05:49.748Z,13.46
2018-10-17T09:06:50.102Z,13.62
2018-10-17T09:07:50.748Z,13.77
2018-10-17T09:08:49.933Z,13.91
2018-10-17T09:09:51.404Z,14.07
2018-10-17T09:10:51.434Z,14.22
2018-10-17T09:11:51.947Z,14.37
2018-10-17T09:12:52.353Z,14.54
2018-10-17T09:13:52.763Z,14.70
2018-10-17T09:14:52.052Z,14.86
2018-10-17T09:15:53.321Z,15.02
2018-10-17T09:16:52.588Z,15.17
2018-10-17T09:17:54.028Z,15.30
2018-10-17T09:18:54.397Z,15.43
2018-10-17T09:19:54.928Z,15.56
2018-10-17T09:20:54.570Z,15.69
2018-10-17T09:21:54.862Z,15.81
2018-10-17T09:22:55.033Z,15.94
2018-10-17T09:23:56.530Z,16.06
2018-10-17T09:24:05.106Z,18.13
2018-10-17T09:25:05.924Z,18.12
2018-10-17T09:26:05.226Z,18.13
2018-10-17T09:27:06.514Z,18.15
2018-10-17T09:28:06.920Z,18.18
2018-10-17T09:29:06.132Z,18.22
2018-10-17T09:30:07.478Z,18.25
2018-10-17T09:31:06.707Z,18.29
2018-10-17T09:32:08.069Z,18.34
2018-10-17T09:33:08.518Z,18.40
2018-10-17T09:34:09.068Z,18.45
2018-10-17T09:35:10.396Z,18.50
2018-10-17T09:36:08.993Z,18.52
2018-10-17T09:37:09.262Z,18.53
2018-10-17T09:38:10.745Z,18.54
2018-10-17T09:39:11.147Z,18.54
2018-10-17T09:40:11.553Z,18.54
2018-10-17T09:41:10.717Z,18.55
2018-10-17T09:42:11.814Z,18.55
2018-10-17T09:43:11.234Z,18.54
2018-10-17T09:44:12.532Z,18.51
2018-10-17T09:45:12.889Z,18.48
2018-10-17T09:46:13.282Z,18.45
2018-10-17T09:47:12.591Z,18.43
2018-10-17T09:48:14.177Z,18.41
2018-10-17T09:49:13.323Z,18.39
2018-10-17T09:50:14.595Z,18.36
2018-10-17T09:51:15.138Z,18.33
2018-10-17T09:52:15.096Z,18.31
2018-10-17T09:53:15.322Z,18.29
2018-10-17T09:54:16.766Z,18.26
2018-10-17T09:55:15.889Z,18.22
2018-10-17T09:56:17.349Z,18.16
2018-10-17T09:57:17.665Z,18.11
2018-10-17T09:58:18.110Z,18.07
2018-10-17T09:59:17.463Z,18.03
2018-10-17T10:00:17.785Z,18.01
2018-10-17T10:01:18.162Z,17.99
2018-10-17T10:02:19.532Z,17.97
2018-10-17T10:03:19.196Z,17.95
2018-10-17T10:04:19.477Z,17.93
2018-10-17T10:05:20.307Z,17.92
2018-10-17T10:06:21.994Z,17.90
2018-10-17T10:07:21.641Z,17.88
2018-10-17T10:08:23.172Z,17.86
2018-10-17T10:09:22.833Z,17.83
2018-10-17T10:10:23.452Z,17.81
2018-10-17T10:11:24.092Z,17.77
2018-10-17T10:12:25.518Z,17.73
2018-10-17T10:13:26.210Z,17.69
2018-10-17T10:14:26.348Z,17.67
2018-10-17T10:15:25.725Z,17.66
2018-10-17T10:16:27.058Z,17.66
2018-10-17T10:17:26.356Z,17.66
2018-10-17T10:18:26.912Z,17.66
2018-10-17T10:19:28.669Z,17.66
2018-10-17T10:20:27.922Z,17.68
2018-10-17T10:21:27.817Z,17.70
2018-10-17T10:22:29.600Z,17.72
2018-10-17T10:23:31.380Z,17.75
2018-10-17T10:24:30.125Z,17.77
2018-10-17T10:25:30.670Z,17.79
2018-10-17T10:26:31.514Z,17.82
2018-10-17T10:27:33.329Z,17.85
2018-10-17T10:28:33.613Z,17.88
2018-10-17T10:29:32.981Z,17.91
2018-10-17T10:30:33.549Z,17.95
2018-10-17T10:31:35.092Z,17.99
2018-10-17T10:32:35.711Z,18.03
2018-10-17T10:33:36.343Z,18.07
2018-10-17T10:33:44.654Z,18.81
2018-10-17T10:34:45.020Z,18.81
2018-10-17T10:35:45.481Z,18.81
2018-10-17T10:36:47.120Z,18.82
2018-10-17T10:37:47.972Z,18.83
2018-10-17T10:38:47.739Z,18.84
2018-10-17T10:39:49.367Z,18.86
2018-10-17T10:40:50.054Z,18.87
2018-10-17T10:41:49.917Z,18.88
2018-10-17T10:42:50.519Z,18.90
2018-10-17T10:43:51.395Z,18.91
2018-10-17T10:44:52.776Z,18.93
2018-10-17T10:45:52.223Z,18.94
2018-10-17T10:46:53.774Z,18.96
2018-10-17T10:47:54.253Z,18.97
2018-10-17T10:48:53.541Z,18.98
2018-10-17T10:49:53.976Z,18.99
2018-10-17T10:50:54.244Z,18.99
2018-10-17T10:51:54.475Z,19.00
2018-10-17T10:52:55.923Z,19.00
2018-10-17T10:53:55.441Z,19.01
2018-10-17T10:54:56.896Z,19.01
2018-10-17T10:55:57.251Z,19.02
2018-10-17T10:56:56.283Z,19.02
2018-10-17T10:57:56.637Z,19.02
2018-10-17T10:58:57.076Z,19.03
2018-10-17T10:59:57.273Z,19.03
2018-10-17T11:00:57.505Z,19.04
2018-10-17T11:01:59.342Z,19.05
2018-10-17T11:02:58.847Z,19.06
2018-10-17T11:03:59.174Z,19.07
2018-10-17T11:05:00.567Z,19.08
2018-10-17T11:05:59.976Z,19.09
2018-10-17T11:07:01.321Z,19.10
2018-10-17T11:08:01.660Z,19.12
2018-10-17T11:09:00.924Z,19.12
2018-10-17T11:10:02.169Z,19.13
2018-10-17T11:11:02.745Z,19.14
2018-10-17T11:12:01.741Z,19.16
2018-10-17T11:13:03.583Z,19.17
2018-10-17T11:14:04.108Z,19.17
2018-10-17T11:15:03.554Z,19.17
2018-10-17T11:16:04.233Z,19.18
2018-10-17T11:17:05.753Z,19.19
2018-10-17T11:18:05.028Z,19.18
2018-10-17T11:19:06.082Z,19.17
2018-10-17T11:20:06.591Z,19.16
2018-10-17T11:21:07.402Z,19.15
2018-10-17T11:22:07.013Z,19.15
2018-10-17T11:23:07.636Z,19.14
2018-10-17T11:24:07.856Z,19.14
2018-10-17T11:25:09.393Z,19.14
2018-10-17T11:26:10.057Z,19.16
2018-10-17T11:27:10.657Z,19.18
2018-10-17T11:28:10.070Z,19.20
2018-10-17T11:29:12.039Z,19.23
2018-10-17T11:30:11.249Z,19.26
2018-10-17T11:31:13.041Z,19.29
2018-10-17T11:32:13.383Z,19.31
2018-10-17T11:33:14.002Z,19.34
2018-10-17T11:34:13.132Z,19.38
2018-10-17T11:35:14.958Z,19.42
2018-10-17T11:36:14.224Z,19.45
2018-10-17T11:37:15.856Z,19.48
2018-10-17T11:38:15.161Z,19.52
2018-10-17T11:39:16.609Z,19.56
2018-10-17T11:39:26.602Z,20.10
2018-10-17T11:40:27.372Z,20.10
2018-10-17T11:41:26.948Z,20.10
2018-10-17T11:42:27.155Z,20.10
2018-10-17T11:43:28.857Z,20.10
2018-10-17T11:44:29.534Z,20.11
2018-10-17T11:45:29.937Z,20.11
2018-10-17T11:46:30.657Z,20.11
2018-10-17T11:47:30.062Z,20.11
2018-10-17T11:48:30.465Z,20.11
2018-10-17T11:49:30.645Z,20.11
2018-10-17T11:50:32.264Z,20.11
2018-10-17T11:51:31.757Z,20.10
2018-10-17T11:52:33.423Z,20.09
2018-10-17T11:53:33.756Z,20.08
2018-10-17T11:54:34.041Z,20.08
2018-10-17T11:55:34.269Z,20.07
2018-10-17T11:56:34.670Z,20.06
2018-10-17T11:57:35.000Z,20.06
2018-10-17T11:58:35.352Z,20.05
2018-10-17T11:59:35.687Z,20.05
2018-10-17T12:00:34.904Z,20.04
2018-10-17T12:01:36.259Z,20.03
2018-10-17T12:02:36.572Z,20.02
2018-10-17T12:03:37.324Z,20.01
2018-10-17T12:04:36.929Z,20.01
2018-10-17T12:05:37.795Z,20.01
2018-10-17T12:06:37.896Z,20.01
2018-10-17T12:07:38.245Z,20.01
2018-10-17T12:08:39.687Z,20.02
2018-10-17T12:09:39.694Z,20.04
2018-10-17T12:10:39.997Z,20.05
2018-10-17T12:11:40.400Z,20.07
2018-10-17T12:12:40.914Z,20.09
2018-10-17T12:13:41.212Z,20.12
2018-10-17T12:14:41.537Z,20.14
2018-10-17T12:15:41.822Z,20.16
2018-10-17T12:16:42.218Z,20.18
2018-10-17T12:17:42.806Z,20.20
2018-10-17T12:18:43.207Z,20.23
2018-10-17T12:19:43.672Z,20.25
2018-10-17T12:20:44.162Z,20.27
2018-10-17T12:21:43.439Z,20.30
2018-10-17T12:22:44.806Z,20.32
2018-10-17T12:23:45.247Z,20.34
2018-10-17T12:24:45.587Z,20.36
2018-10-17T12:25:46.177Z,20.38
2018-10-17T12:26:46.646Z,20.40
2018-10-17T12:27:47.088Z,20.42
2018-10-17T12:28:46.426Z,20.44
2018-10-17T12:29:46.648Z,20.46
2018-10-17T12:30:47.968Z,20.47
2018-10-17T12:31:48.278Z,20.49
2018-10-17T12:32:49.142Z,20.51
2018-10-17T12:33:49.522Z,20.52
2018-10-17T12:34:49.973Z,20.54
2018-10-17T12:34:58.635Z,20.85
2018-10-17T12:35:58.133Z,20.84
2018-10-17T12:37:00.447Z,20.84
2018-10-17T12:37:59.822Z,20.84
2018-10-17T12:39:00.206Z,20.83
2018-10-17T12:39:59.605Z,20.83
2018-10-17T12:40:59.974Z,20.82
2018-10-17T12:42:00.047Z,20.81
2018-10-17T12:43:01.559Z,20.80
2018-10-17T12:44:01.883Z,20.79
2018-10-17T12:45:01.176Z,20.77
2018-10-17T12:46:01.407Z,20.76
2018-10-17T12:47:02.801Z,20.76
2018-10-17T12:48:02.041Z,20.76
2018-10-17T12:49:03.510Z,20.76
2018-10-17T12:50:02.859Z,20.75
2018-10-17T12:51:03.118Z,20.75
2018-10-17T12:52:04.535Z,20.73